createdAt,value
2019-05-26T00:00:57.296Z,4.40
2019-05-26T00:06:01.108Z,5.00
2019-05-26T00:11:04.891Z,4.00
2019-05-26T00:16:08.695Z,6.75
2019-05-26T00:21:12.551Z,4.25
2019-05-26T00:26:16.318Z,4.25
2019-05-26T00:31:20.111Z,4.40
2019-05-26T00:36:23.899Z,5.00
2019-05-26T00:41:27.691Z,5.50
2019-05-26T00:46:32.880Z,5.00
2019-05-26T00:51:36.672Z,6.00
2019-05-26T00:56:40.496Z,4.25
2019-05-26T01:01:44.280Z,5.00
2019-05-26T01:06:48.083Z,6.60
2019-05-26T01:11:51.847Z,5.25
2019-05-26T01:16:56.270Z,4.25
2019-05-26T01:22:00.129Z,4.50
2019-05-26T01:27:03.877Z,5.20
2019-05-26T01:32:07.775Z,4.00
2019-05-26T01:37:11.629Z,5.00
2019-05-26T01:42:15.651Z,4.80
2019-05-26T01:47:19.413Z,4.00
2019-05-26T01:52:23.188Z,4.60
2019-05-26T01:57:26.947Z,4.00
2019-05-26T02:02:30.768Z,3.50
2019-05-26T02:07:34.570Z,3.50
2019-05-26T02:12:38.371Z,3.50
2019-05-26T02:17:42.154Z,3.40
2019-05-26T02:22:45.925Z,3.00
2019-05-26T02:27:49.725Z,4.20
2019-05-26T02:32:53.549Z,5.25
2019-05-26T02:37:57.412Z,4.50
2019-05-26T02:43:01.189Z,4.00
2019-05-26T02:48:05.097Z,4.75
2019-05-26T02:53:08.908Z,3.75
2019-05-26T02:58:12.712Z,4.00
2019-05-26T03:03:17.113Z,3.40
2019-05-26T03:08:20.929Z,5.60
2019-05-26T03:13:24.731Z,3.60
2019-05-26T03:18:29.828Z,4.00
2019-05-26T03:23:33.640Z,3.00
2019-05-26T03:28:37.551Z,3.25
2019-05-26T03:33:41.371Z,4.00
2019-05-26T03:38:45.143Z,3.20
2019-05-26T03:43:48.914Z,4.00
2019-05-26T03:48:52.840Z,2.00
2019-05-26T03:53:56.778Z,4.00
2019-05-26T03:59:00.680Z,3.00
2019-05-26T04:04:04.620Z,3.00
2019-05-26T04:09:08.823Z,3.00
2019-05-26T04:14:12.579Z,3.00
2019-05-26T04:19:16.390Z,4.00
2019-05-26T04:24:20.347Z,3.00
2019-05-26T04:29:24.138Z,3.00
2019-05-26T04:34:27.949Z,3.00
2019-05-26T04:39:31.784Z,3.00
2019-05-26T04:44:35.564Z,3.75
2019-05-26T04:49:39.370Z,4.25
2019-05-26T04:54:43.160Z,4.00
2019-05-26T04:59:46.948Z,3.40
2019-05-26T05:04:50.751Z,3.00
2019-05-26T05:09:54.560Z,3.00
2019-05-26T05:14:58.583Z,3.00
2019-05-26T05:20:02.702Z,3.00
2019-05-26T05:25:13.893Z,3.00
2019-05-26T05:30:12.415Z,2.25
2019-05-26T05:35:16.209Z,3.50
2019-05-26T05:40:21.705Z,2.80
2019-05-26T05:45:25.477Z,4.25
2019-05-26T05:50:29.418Z,3.00
2019-05-26T05:55:33.236Z,3.20
2019-05-26T06:00:37.033Z,2.00
2019-05-26T06:05:40.823Z,3.50
2019-05-26T06:10:44.655Z,2.50
2019-05-26T06:15:48.410Z,3.75
2019-05-26T06:20:52.304Z,3.00
2019-05-26T06:25:56.106Z,3.00
2019-05-26T06:30:59.896Z,3.00
2019-05-26T06:36:03.716Z,3.00
2019-05-26T06:41:07.490Z,1.75
2019-05-26T06:46:11.372Z,2.00
2019-05-26T06:51:15.224Z,3.00
2019-05-26T06:56:19.017Z,3.00
2019-05-26T07:01:22.831Z,3.00
2019-05-26T07:06:26.616Z,2.25
2019-05-26T07:11:30.407Z,13.50
2019-05-26T07:16:38.097Z,14.75
2019-05-26T07:21:39.785Z,15.00
2019-05-26T07:26:43.581Z,13.00
2019-05-26T07:31:47.406Z,14.40
2019-05-26T07:36:51.238Z,15.25
2019-05-26T07:42:09.201Z,15.75
2019-05-26T07:47:00.733Z,13.75
2019-05-26T07:52:13.171Z,13.00
2019-05-26T07:57:17.003Z,13.50
2019-05-26T08:02:20.869Z,13.25
2019-05-26T08:07:24.691Z,13.75
2019-05-26T08:12:30.742Z,14.00
2019-05-26T08:17:34.036Z,12.40
2019-05-26T08:22:37.964Z,12.00
2019-05-26T08:27:41.829Z,12.25
2019-05-26T08:32:45.710Z,10.50
2019-05-26T08:37:49.536Z,10.50
2019-05-26T08:42:53.443Z,8.20
2019-05-26T08:47:57.296Z,10.00
2019-05-26T08:53:01.136Z,11.00
2019-05-26T08:58:05.293Z,13.00
2019-05-26T09:03:09.101Z,7.75
2019-05-26T09:08:12.925Z,12.40
2019-05-26T09:13:16.713Z,9.80
2019-05-26T09:18:20.499Z,16.00
2019-05-26T09:23:24.309Z,10.60
2019-05-26T09:28:28.106Z,14.50
2019-05-26T09:33:31.914Z,12.00
2019-05-26T09:38:35.739Z,12.00
2019-05-26T09:43:39.553Z,11.75
2019-05-26T09:48:43.412Z,12.00
2019-05-26T09:54:00.837Z,15.25
2019-05-26T09:58:52.796Z,12.75
2019-05-26T10:03:56.633Z,13.00
2019-05-26T10:09:00.490Z,13.00
2019-05-26T10:14:04.400Z,17.00
2019-05-26T10:19:08.307Z,14.20
2019-05-26T10:24:12.164Z,16.25
2019-05-26T10:29:15.966Z,15.60
2019-05-26T10:34:19.757Z,14.00
2019-05-26T10:39:23.559Z,12.75
2019-05-26T10:44:27.354Z,13.75
2019-05-26T10:49:31.204Z,12.60
2019-05-26T10:54:35.108Z,13.75
2019-05-26T10:59:38.900Z,13.00
2019-05-26T11:04:42.746Z,12.75
2019-05-26T11:09:46.614Z,10.00
2019-05-26T11:14:50.483Z,10.00
2019-05-26T11:19:54.307Z,10.75
2019-05-26T11:24:58.129Z,11.00
2019-05-26T11:30:01.919Z,9.50
2019-05-26T11:35:08.234Z,9.00
2019-05-26T11:40:12.043Z,9.80
2019-05-26T11:45:15.927Z,9.80
2019-05-26T11:50:19.888Z,10.00
2019-05-26T11:55:23.781Z,9.75
2019-05-26T12:00:27.569Z,9.00
2019-05-26T12:05:31.390Z,11.40
2019-05-26T12:10:35.217Z,8.00
2019-05-26T12:15:39.033Z,9.00
2019-05-26T12:20:42.938Z,9.00
2019-05-26T12:25:46.730Z,10.00
2019-05-26T12:30:50.550Z,9.00
2019-05-26T12:35:54.435Z,8.40
2019-05-26T12:40:58.235Z,7.80
2019-05-26T12:46:02.036Z,8.40
2019-05-26T12:51:05.943Z,7.00
2019-05-26T12:56:09.728Z,9.25
2019-05-26T13:01:13.560Z,7.20
2019-05-26T13:06:17.772Z,9.20
2019-05-26T13:11:22.923Z,8.80
2019-05-26T13:16:26.972Z,7.00
2019-05-26T13:21:31.091Z,6.25
2019-05-26T13:26:34.887Z,6.75
2019-05-26T13:31:38.776Z,8.00
2019-05-26T13:36:42.550Z,7.00
2019-05-26T13:41:46.325Z,6.50
2019-05-26T13:46:50.147Z,6.00
2019-05-26T13:51:53.978Z,5.00
2019-05-26T13:56:57.740Z,5.50
2019-05-26T14:02:01.751Z,6.00
2019-05-26T14:07:05.683Z,6.00
2019-05-26T14:12:09.449Z,7.00
2019-05-26T14:17:13.253Z,7.50
2019-05-26T14:22:17.047Z,6.00
2019-05-26T14:27:20.818Z,6.00
2019-05-26T14:32:24.619Z,5.75
2019-05-26T14:37:28.428Z,6.00
2019-05-26T14:42:32.273Z,6.00
2019-05-26T14:47:36.087Z,5.00
2019-05-26T14:52:39.885Z,5.00
2019-05-26T14:57:43.737Z,6.25
2019-05-26T15:02:47.559Z,5.00
2019-05-26T15:07:51.367Z,7.00
2019-05-26T15:12:55.159Z,5.00
2019-05-26T15:17:58.962Z,5.40
2019-05-26T15:23:02.775Z,4.80
2019-05-26T15:28:06.678Z,6.00
2019-05-26T15:33:10.512Z,5.25
2019-05-26T15:38:14.337Z,5.00
2019-05-26T15:43:18.395Z,5.00
2019-05-26T15:48:22.197Z,5.00
2019-05-26T15:53:26.006Z,4.50
2019-05-26T15:58:29.827Z,5.00
2019-05-26T16:03:33.605Z,5.60
2019-05-26T16:08:37.436Z,4.75
2019-05-26T16:13:41.364Z,4.50
2019-05-26T16:18:45.151Z,4.80
2019-05-26T16:23:48.973Z,5.00
2019-05-26T16:28:52.744Z,4.50
2019-05-26T16:33:56.542Z,5.00
2019-05-26T16:39:00.326Z,4.50
2019-05-26T16:44:04.122Z,4.25
2019-05-26T16:49:07.928Z,4.00
2019-05-26T16:54:11.705Z,4.00
2019-05-26T16:59:15.505Z,4.60
2019-05-26T17:04:19.291Z,5.00
2019-05-26T17:09:23.070Z,4.50
2019-05-26T17:14:27.043Z,5.25
2019-05-26T17:19:30.915Z,6.00
2019-05-26T17:24:34.670Z,5.50
2019-05-26T17:29:38.436Z,4.25
2019-05-26T17:34:42.218Z,8.00
2019-05-26T17:39:45.989Z,4.40
2019-05-26T17:44:49.756Z,7.00
2019-05-26T17:49:53.534Z,8.25
2019-05-26T17:54:57.363Z,11.25
2019-05-26T18:00:01.187Z,9.20
2019-05-26T18:05:05.481Z,8.50
2019-05-26T18:10:09.268Z,12.40
2019-05-26T18:15:13.122Z,14.60
2019-05-26T18:20:16.908Z,15.50
2019-05-26T18:25:20.721Z,23.40
2019-05-26T18:30:24.503Z,19.00
2019-05-26T18:35:28.280Z,21.00
2019-05-26T18:40:32.078Z,17.00
2019-05-26T18:45:35.842Z,18.75
2019-05-26T18:50:39.778Z,21.00
2019-05-26T18:55:43.573Z,21.25
2019-05-26T19:00:47.359Z,23.20
2019-05-26T19:05:51.262Z,17.50
2019-05-26T19:10:55.265Z,19.60
2019-05-26T19:15:59.041Z,17.25
2019-05-26T19:21:02.831Z,18.75
2019-05-26T19:26:06.635Z,17.00
2019-05-26T19:31:10.425Z,16.60
2019-05-26T19:36:14.230Z,16.40
2019-05-26T19:41:18.036Z,17.75
2019-05-26T19:46:21.882Z,18.00
2019-05-26T19:51:25.682Z,16.25
2019-05-26T19:56:29.538Z,19.50
2019-05-26T20:01:33.334Z,17.60
2019-05-26T20:06:37.106Z,15.50
2019-05-26T20:11:40.893Z,17.00
2019-05-26T20:16:44.672Z,17.00
2019-05-26T20:21:48.480Z,14.80
2019-05-26T20:26:52.368Z,15.60
2019-05-26T20:31:56.202Z,16.75
2019-05-26T20:37:00.014Z,14.00
2019-05-26T20:42:03.797Z,16.00
2019-05-26T20:47:07.588Z,17.00
2019-05-26T20:52:11.397Z,17.25
2019-05-26T20:57:15.184Z,16.25
2019-05-26T21:02:18.995Z,17.75
2019-05-26T21:07:22.770Z,13.20
2019-05-26T21:12:26.582Z,15.20
2019-05-26T21:17:30.384Z,14.00
2019-05-26T21:22:34.196Z,15.00
2019-05-26T21:27:37.990Z,13.40
2019-05-26T21:32:41.783Z,14.25
2019-05-26T21:37:45.571Z,14.50
2019-05-26T21:42:49.359Z,15.00
2019-05-26T21:47:53.130Z,12.75
2019-05-26T21:52:56.920Z,14.00
2019-05-26T21:58:00.687Z,14.00
2019-05-26T22:03:04.469Z,12.75
2019-05-26T22:08:08.263Z,11.50
2019-05-26T22:13:12.034Z,12.00
2019-05-26T22:18:15.830Z,14.00
2019-05-26T22:23:19.607Z,13.80
2019-05-26T22:28:23.371Z,10.75
2019-05-26T22:33:27.140Z,11.20
2019-05-26T22:38:30.920Z,12.75
2019-05-26T22:43:34.707Z,12.80
2019-05-26T22:48:38.483Z,12.40
2019-05-26T22:53:42.261Z,11.00
2019-05-26T22:58:46.041Z,13.75
2019-05-26T23:03:49.820Z,10.50
2019-05-26T23:08:53.634Z,11.25
2019-05-26T23:13:57.399Z,11.60
2019-05-26T23:19:01.192Z,13.00
2019-05-26T23:24:04.964Z,9.50
2019-05-26T23:29:08.744Z,12.00
2019-05-26T23:34:12.529Z,13.20
2019-05-26T23:39:16.375Z,10.00
2019-05-26T23:44:20.253Z,11.75
2019-05-26T23:49:24.133Z,11.00
2019-05-26T23:54:27.941Z,9.40
2019-05-26T23:59:31.711Z,9.00
